Startpagina
METAR-TAF:

METAR-TAF

Vliegvelden :

Cuenca, Ecuador

breedte: 02-53-22S, lengte: 078-59-04W, hoogte: 2532 m

Actueel weer

Dit bericht is 15 minuten geleden gemaakt, om 19:00 UTC
Wind 10 kt uit het zuiden
Temperatuur 18°C
Vochtigheid 73%
Druk 1025 hPa
Zicht 10 km of meer
Gebroken wolken op 4000 ft
Gebroken wolken op 9000 ft

METAR: SECU 281900Z 18010KT 9999 BKN040 BKN090 18/13 Q1025

Tijdstip: 14:15 (19:15 UTC)


TAF: ontbreekt

Waarnemingen en weersverwachtingen van meer dan 4000 vliegvelden (METAR en TAF).

De beschikbare stations zijn de gele en rode punten op de kaart.

Ga met uw muis naar het station om de naam te zien.

Klik dan om waarnemingen en weersverwachtingen te zien.

kaart wijzigen: klik op de groene knoppen met een zwart kruis om in te zoomen, op de groene knop met een streepje om uit te zoomen of op de groene pijlen voor aangrenzende kaarten.


METAR-TAF: